createdAt,value
2022-09-10T00:00:04.840Z,21.86
2022-09-10T00:02:34.745Z,21.72
2022-09-10T00:05:04.972Z,21.70
2022-09-10T00:07:54.832Z,21.63
2022-09-10T00:10:26.397Z,21.37
2022-09-10T00:12:56.911Z,21.34
2022-09-10T00:15:26.945Z,21.43
2022-09-10T00:17:57.308Z,21.45
2022-09-10T00:20:27.283Z,21.34
2022-09-10T00:22:58.456Z,21.35
2022-09-10T00:25:32.164Z,21.24
2022-09-10T00:28:02.221Z,21.53
2022-09-10T00:30:32.033Z,21.42
2022-09-10T00:33:03.143Z,21.42
2022-09-10T00:35:33.864Z,21.51
2022-09-10T00:38:05.435Z,21.58
2022-09-10T00:40:35.698Z,21.55
2022-09-10T00:43:12.803Z,21.47
2022-09-10T00:45:45.238Z,21.52
2022-09-10T00:48:19.468Z,21.52
2022-09-10T00:50:51.849Z,21.48
2022-09-10T00:53:27.660Z,21.41
2022-09-10T00:56:05.263Z,21.38
2022-09-10T00:58:36.499Z,21.41
2022-09-10T01:01:07.711Z,21.36
2022-09-10T01:03:39.932Z,21.35
2022-09-10T01:06:10.676Z,21.32
2022-09-10T01:08:42.068Z,21.31
2022-09-10T01:11:34.853Z,21.25
2022-09-10T01:14:20.596Z,21.22
2022-09-10T01:17:03.470Z,21.27
2022-09-10T01:20:05.747Z,21.19
2022-09-10T01:22:55.225Z,21.23
2022-09-10T01:25:40.569Z,21.20
2022-09-10T01:28:18.600Z,20.91
2022-09-10T01:30:53.172Z,21.04
2022-09-10T01:33:30.525Z,21.11
2022-09-10T01:36:04.581Z,21.17
2022-09-10T01:38:38.725Z,21.16
2022-09-10T01:41:10.763Z,21.12
2022-09-10T01:43:42.297Z,21.15
2022-09-10T01:46:28.339Z,21.16
2022-09-10T01:49:11.313Z,21.11
2022-09-10T01:51:56.713Z,20.81
2022-09-10T01:54:41.024Z,20.80
2022-09-10T01:57:15.657Z,20.94
2022-09-10T01:59:53.755Z,20.98
2022-09-10T02:02:30.095Z,20.93
2022-09-10T02:05:02.603Z,20.63
2022-09-10T02:07:34.965Z,20.58
2022-09-10T02:10:07.198Z,20.53
2022-09-10T02:12:40.078Z,20.56
2022-09-10T02:15:12.820Z,20.63
2022-09-10T02:17:44.093Z,20.55
2022-09-10T02:20:14.956Z,20.41
2022-09-10T02:22:51.749Z,20.34
2022-09-10T02:25:21.530Z,20.24
2022-09-10T02:27:51.339Z,20.32
2022-09-10T02:30:24.838Z,20.20
2022-09-10T02:32:54.664Z,20.22
2022-09-10T02:35:24.502Z,20.25
2022-09-10T02:37:54.463Z,20.32
2022-09-10T02:40:24.311Z,20.38
2022-09-10T02:42:55.623Z,20.36
2022-09-10T02:45:26.917Z,20.35
2022-09-10T02:47:56.744Z,20.00
2022-09-10T02:50:26.642Z,20.10
2022-09-10T02:52:57.618Z,20.03
2022-09-10T02:55:27.524Z,19.84
2022-09-10T02:57:58.371Z,19.96
2022-09-10T03:00:31.595Z,19.86
2022-09-10T03:03:03.274Z,19.88
2022-09-10T03:05:33.532Z,19.95
2022-09-10T03:08:04.188Z,19.99
2022-09-10T03:10:34.250Z,19.89
2022-09-10T03:13:04.185Z,19.88
2022-09-10T03:15:36.021Z,19.87
2022-09-10T03:18:06.811Z,19.88
2022-09-10T03:20:37.339Z,19.71
2022-09-10T03:23:07.807Z,19.65
2022-09-10T03:25:37.768Z,19.53
2022-09-10T03:28:07.659Z,19.68
2022-09-10T03:30:40.255Z,19.70
2022-09-10T03:33:11.878Z,19.74
2022-09-10T03:35:41.832Z,19.73
2022-09-10T03:38:11.648Z,19.76
2022-09-10T03:40:41.977Z,19.72
2022-09-10T03:43:14.012Z,19.60
2022-09-10T03:45:45.552Z,19.65
2022-09-10T03:48:15.418Z,19.59
2022-09-10T03:50:46.042Z,19.56
2022-09-10T03:53:18.045Z,19.39
2022-09-10T03:55:51.893Z,19.33
2022-09-10T03:58:21.868Z,19.40
2022-09-10T04:00:53.063Z,19.34
2022-09-10T04:03:23.071Z,19.34
2022-09-10T04:05:52.975Z,19.21
2022-09-10T04:08:23.293Z,19.17
2022-09-10T04:10:53.093Z,19.21
2022-09-10T04:13:23.125Z,19.25
2022-09-10T04:15:56.096Z,19.15
2022-09-10T04:18:27.451Z,19.22
2022-09-10T04:20:57.387Z,19.14
2022-09-10T04:23:27.507Z,19.09
2022-09-10T04:25:57.577Z,19.08
2022-09-10T04:28:27.526Z,19.13
2022-09-10T04:30:59.740Z,18.96
2022-09-10T04:33:29.559Z,19.14
2022-09-10T04:36:00.978Z,19.06
2022-09-10T04:38:31.247Z,19.19
2022-09-10T04:41:01.704Z,19.23
2022-09-10T04:43:32.797Z,19.22
2022-09-10T04:46:04.136Z,19.10
2022-09-10T04:48:34.485Z,19.18
2022-09-10T04:51:16.173Z,19.25
2022-09-10T04:53:47.473Z,19.27
2022-09-10T04:56:18.445Z,19.12
2022-09-10T04:58:48.471Z,19.27
2022-09-10T05:01:19.882Z,19.38
2022-09-10T05:03:49.648Z,19.43
2022-09-10T05:06:20.361Z,19.48
2022-09-10T05:08:51.172Z,19.43
2022-09-10T05:11:21.314Z,19.59
2022-09-10T05:13:51.316Z,19.82
2022-09-10T05:16:22.567Z,19.99
2022-09-10T05:18:53.190Z,20.13
2022-09-10T05:21:23.632Z,20.38
2022-09-10T05:23:53.384Z,20.49
2022-09-10T05:26:23.300Z,20.49
2022-09-10T05:28:55.568Z,20.43
2022-09-10T05:31:27.850Z,20.62
2022-09-10T05:33:59.368Z,20.80
2022-09-10T05:36:32.040Z,20.79
2022-09-10T05:39:03.173Z,20.92
2022-09-10T05:41:33.289Z,21.11
2022-09-10T05:44:03.194Z,21.24
2022-09-10T05:46:34.689Z,21.28
2022-09-10T05:49:04.500Z,20.99
2022-09-10T05:51:34.444Z,21.00
2022-09-10T05:54:04.501Z,20.96
2022-09-10T05:56:34.775Z,21.21
2022-09-10T05:59:05.654Z,21.43
2022-09-10T06:01:37.768Z,21.58
2022-09-10T06:04:07.472Z,21.63
2022-09-10T06:06:37.301Z,21.71
2022-09-10T06:09:07.296Z,21.65
2022-09-10T06:11:37.117Z,21.76
2022-09-10T06:14:07.344Z,21.68
2022-09-10T06:16:38.982Z,21.46
2022-09-10T06:19:09.719Z,21.65
2022-09-10T06:21:39.506Z,21.87
2022-09-10T06:24:10.628Z,21.72
2022-09-10T06:26:40.535Z,21.97
2022-09-10T06:29:11.742Z,22.11
2022-09-10T06:31:43.391Z,22.12
2022-09-10T06:34:13.137Z,22.26
2022-09-10T06:36:43.732Z,22.28
2022-09-10T06:39:13.504Z,22.30
2022-09-10T06:41:47.897Z,22.37
2022-09-10T06:44:19.472Z,22.40
2022-09-10T06:47:19.905Z,22.51
2022-09-10T06:49:40.751Z,22.56
2022-09-10T06:52:11.546Z,22.69
2022-09-10T06:54:41.291Z,22.72
2022-09-10T06:57:11.419Z,22.68
2022-09-10T06:59:41.365Z,22.71
2022-09-10T07:02:12.990Z,22.88
2022-09-10T07:04:42.947Z,22.99
2022-09-10T07:07:12.750Z,22.99
2022-09-10T07:09:43.266Z,23.10
2022-09-10T07:12:12.991Z,23.35
2022-09-10T07:14:43.199Z,23.40
2022-09-10T07:17:14.334Z,23.41
2022-09-10T07:19:44.143Z,23.49
2022-09-10T07:22:13.859Z,23.52
2022-09-10T07:24:43.684Z,23.58
2022-09-10T07:27:13.437Z,23.45
2022-09-10T07:29:43.340Z,23.58
2022-09-10T07:32:14.611Z,23.68
2022-09-10T07:34:46.652Z,23.79
2022-09-10T07:37:16.696Z,23.90
2022-09-10T07:39:47.066Z,23.86
2022-09-10T07:42:17.176Z,23.92
2022-09-10T07:44:46.908Z,23.99
2022-09-10T07:47:18.817Z,24.09
2022-09-10T07:49:48.892Z,24.10
2022-09-10T07:52:19.254Z,24.24
2022-09-10T07:54:49.403Z,24.10
2022-09-10T07:57:19.408Z,24.22
2022-09-10T07:59:49.535Z,24.25
2022-09-10T08:02:22.137Z,24.14
2022-09-10T08:04:52.185Z,24.24
2022-09-10T08:07:22.047Z,24.40
2022-09-10T08:09:52.060Z,24.54
2022-09-10T08:12:22.153Z,24.58
2022-09-10T08:14:52.250Z,24.60
2022-09-10T08:17:23.447Z,24.64
2022-09-10T08:19:53.939Z,24.78
2022-09-10T08:22:24.405Z,24.84
2022-09-10T08:24:55.899Z,24.94
2022-09-10T08:27:25.744Z,25.03
2022-09-10T08:29:58.129Z,25.10
2022-09-10T08:32:29.354Z,25.04
2022-09-10T08:34:59.473Z,25.09
2022-09-10T08:37:31.268Z,25.09
2022-09-10T08:40:01.488Z,24.96
2022-09-10T08:42:40.048Z,24.93
2022-09-10T08:45:15.115Z,24.97
2022-09-10T08:47:54.331Z,25.13
2022-09-10T08:50:30.310Z,25.23
2022-09-10T08:53:09.503Z,25.47
2022-09-10T08:55:45.045Z,25.54
2022-09-10T08:58:42.529Z,25.54
2022-09-10T09:01:19.177Z,25.66
2022-09-10T09:03:50.909Z,25.63
2022-09-10T09:06:29.708Z,25.59
2022-09-10T09:09:01.937Z,25.67
2022-09-10T09:11:42.261Z,25.82
2022-09-10T09:14:33.647Z,25.93
2022-09-10T09:17:27.749Z,25.88
2022-09-10T09:20:11.203Z,25.88
2022-09-10T09:22:51.383Z,25.90
2022-09-10T09:25:28.906Z,25.85
2022-09-10T09:27:59.965Z,25.94
2022-09-10T09:30:35.696Z,26.00
2022-09-10T09:33:14.736Z,25.96
2022-09-10T09:35:50.379Z,26.01
2022-09-10T09:38:24.816Z,26.07
2022-09-10T09:40:58.019Z,26.07
2022-09-10T09:43:36.310Z,26.02
2022-09-10T09:46:16.806Z,26.15
2022-09-10T09:48:48.018Z,26.16
2022-09-10T09:51:21.504Z,26.14
2022-09-10T09:54:06.178Z,26.09
2022-09-10T09:56:45.636Z,26.12
2022-09-10T09:59:26.892Z,26.30
2022-09-10T10:02:00.720Z,26.24
2022-09-10T10:04:33.945Z,26.30
2022-09-10T10:07:05.610Z,26.42
2022-09-10T10:09:43.499Z,26.52
2022-09-10T10:12:21.070Z,26.54
2022-09-10T10:14:51.473Z,26.50
2022-09-10T10:17:35.066Z,26.60
2022-09-10T10:20:11.424Z,26.50
2022-09-10T10:22:44.226Z,26.65
2022-09-10T10:25:38.446Z,26.79
2022-09-10T10:28:17.528Z,26.85
2022-09-10T10:30:53.457Z,27.03
2022-09-10T10:33:29.424Z,27.07
2022-09-10T10:36:11.763Z,27.09
2022-09-10T10:38:49.347Z,27.10
2022-09-10T10:41:40.967Z,27.06
2022-09-10T10:44:35.346Z,26.98
2022-09-10T10:47:24.484Z,26.87
2022-09-10T10:50:04.729Z,27.00
2022-09-10T10:52:44.562Z,27.00
2022-09-10T10:55:24.477Z,27.15
2022-09-10T10:58:10.469Z,27.25
2022-09-10T11:00:45.495Z,27.26
2022-09-10T11:03:23.987Z,27.36
2022-09-10T11:06:00.912Z,27.41
2022-09-10T11:08:36.837Z,27.41
2022-09-10T11:11:14.327Z,27.39
2022-09-10T11:13:48.436Z,27.43
2022-09-10T11:16:24.494Z,27.49
2022-09-10T11:18:58.341Z,27.35
2022-09-10T11:21:33.063Z,27.39
2022-09-10T11:24:11.981Z,27.54
2022-09-10T11:26:52.176Z,27.18
2022-09-10T11:29:35.463Z,27.20
2022-09-10T11:32:10.008Z,27.15
2022-09-10T11:34:49.420Z,27.07
2022-09-10T11:37:25.554Z,27.15
2022-09-10T11:40:01.150Z,27.20
2022-09-10T11:42:40.873Z,27.34
2022-09-10T11:45:21.979Z,27.28
2022-09-10T11:48:00.385Z,27.20
2022-09-10T11:50:38.022Z,27.22
2022-09-10T11:53:12.747Z,27.20
2022-09-10T11:55:59.470Z,27.44
2022-09-10T11:58:40.722Z,27.32
2022-09-10T12:01:17.700Z,27.48
2022-09-10T12:04:05.640Z,27.46
2022-09-10T12:06:54.877Z,27.36
2022-09-10T12:09:31.217Z,27.45
2022-09-10T12:12:10.380Z,27.61
2022-09-10T12:14:42.394Z,27.66
2022-09-10T12:17:18.482Z,27.62
2022-09-10T12:19:53.137Z,27.56
2022-09-10T12:22:28.204Z,27.48
2022-09-10T12:25:03.085Z,27.55
2022-09-10T12:27:46.443Z,27.34
2022-09-10T12:30:55.919Z,27.30
2022-09-10T12:34:16.551Z,27.39
2022-09-10T12:37:24.778Z,27.64
2022-09-10T12:40:40.519Z,27.45
2022-09-10T12:43:51.587Z,27.27
2022-09-10T12:46:25.785Z,27.56
2022-09-10T12:49:12.015Z,27.47
2022-09-10T12:51:57.947Z,27.25
2022-09-10T12:54:50.878Z,27.16
2022-09-10T12:57:29.166Z,27.22
2022-09-10T13:00:19.310Z,27.36
2022-09-10T13:02:53.936Z,27.46
2022-09-10T13:05:32.282Z,27.46
2022-09-10T13:08:12.224Z,27.23
2022-09-10T13:10:44.711Z,27.25
2022-09-10T13:13:34.185Z,27.18
2022-09-10T13:16:06.307Z,27.16
2022-09-10T13:18:39.176Z,27.37
2022-09-10T13:21:42.215Z,27.34
2022-09-10T13:25:00.766Z,27.31
2022-09-10T13:27:39.735Z,27.17
2022-09-10T13:30:17.910Z,27.15
2022-09-10T13:32:51.887Z,27.07
2022-09-10T13:35:45.518Z,27.09
2022-09-10T13:38:39.879Z,27.07
2022-09-10T13:41:36.489Z,27.07
2022-09-10T13:44:22.742Z,27.18
2022-09-10T13:46:57.446Z,26.95
2022-09-10T13:49:36.421Z,26.91
2022-09-10T13:52:13.760Z,26.92
2022-09-10T13:54:51.683Z,27.13
2022-09-10T13:57:31.330Z,27.12
2022-09-10T14:00:07.202Z,27.01
2022-09-10T14:02:48.610Z,27.17
2022-09-10T14:05:27.528Z,27.16
2022-09-10T14:08:01.798Z,27.08
2022-09-10T14:10:33.915Z,27.04
2022-09-10T14:13:05.925Z,27.06
2022-09-10T14:15:40.392Z,26.94
2022-09-10T14:18:12.348Z,26.87
2022-09-10T14:20:43.288Z,26.84
2022-09-10T14:23:17.027Z,26.80
2022-09-10T14:25:47.661Z,26.83
2022-09-10T14:28:25.845Z,26.83
2022-09-10T14:31:21.027Z,26.82
2022-09-10T14:33:51.140Z,26.80
2022-09-10T14:36:24.153Z,26.83
2022-09-10T14:38:57.838Z,26.75
2022-09-10T14:41:31.467Z,26.92
2022-09-10T14:44:29.826Z,26.83
2022-09-10T14:47:01.071Z,26.95
2022-09-10T14:49:33.944Z,26.95
2022-09-10T14:52:05.176Z,26.97
2022-09-10T14:54:36.262Z,26.92
2022-09-10T14:57:13.318Z,26.78
2022-09-10T14:59:46.563Z,26.73
2022-09-10T15:02:20.821Z,26.86
2022-09-10T15:04:51.000Z,26.93
2022-09-10T15:07:21.299Z,26.97
2022-09-10T15:09:54.296Z,26.96
2022-09-10T15:12:27.139Z,26.99
2022-09-10T15:14:59.253Z,26.95
2022-09-10T15:17:29.710Z,27.00
2022-09-10T15:19:59.903Z,27.07
2022-09-10T15:22:31.635Z,27.05
2022-09-10T15:25:10.541Z,27.04
2022-09-10T15:27:42.007Z,27.02
2022-09-10T15:30:13.576Z,26.96
2022-09-10T15:32:43.457Z,26.90
2022-09-10T15:35:13.868Z,26.89
2022-09-10T15:37:43.735Z,26.84
2022-09-10T15:40:13.720Z,26.95
2022-09-10T15:42:43.921Z,26.97
2022-09-10T15:45:15.376Z,26.93
2022-09-10T15:47:45.529Z,26.98
2022-09-10T15:50:16.386Z,26.86
2022-09-10T15:52:46.431Z,26.79
2022-09-10T15:55:16.627Z,26.76
2022-09-10T15:57:47.575Z,26.74
2022-09-10T16:00:20.446Z,26.75
2022-09-10T16:02:54.522Z,26.70
2022-09-10T16:05:24.849Z,26.64
2022-09-10T16:07:55.048Z,26.60
2022-09-10T16:10:25.280Z,26.57
2022-09-10T16:12:55.344Z,26.55
2022-09-10T16:15:27.336Z,26.44
2022-09-10T16:17:58.263Z,26.38
2022-09-10T16:20:28.519Z,26.36
2022-09-10T16:22:59.747Z,26.36
2022-09-10T16:25:31.249Z,26.38
2022-09-10T16:28:01.698Z,26.37
2022-09-10T16:30:33.247Z,26.35
2022-09-10T16:33:03.335Z,26.31
2022-09-10T16:35:36.019Z,26.05
2022-09-10T16:38:06.358Z,26.22
2022-09-10T16:40:36.338Z,26.19
2022-09-10T16:43:07.075Z,26.18
2022-09-10T16:45:38.449Z,26.13
2022-09-10T16:48:08.587Z,26.09
2022-09-10T16:50:38.655Z,26.12
2022-09-10T16:53:12.014Z,26.10
2022-09-10T16:55:42.207Z,26.01
2022-09-10T16:58:13.312Z,26.03
2022-09-10T17:00:44.926Z,26.08
2022-09-10T17:03:15.528Z,26.00
2022-09-10T17:05:46.919Z,25.97
2022-09-10T17:08:17.150Z,25.94
2022-09-10T17:10:47.584Z,25.91
2022-09-10T17:13:17.965Z,25.90
2022-09-10T17:15:49.635Z,25.84
2022-09-10T17:18:19.725Z,25.78
2022-09-10T17:20:49.965Z,25.73
2022-09-10T17:23:20.219Z,25.74
2022-09-10T17:25:50.637Z,25.71
2022-09-10T17:28:20.609Z,25.68
2022-09-10T17:30:56.621Z,25.64
2022-09-10T17:33:27.441Z,25.62
2022-09-10T17:35:58.534Z,25.60
2022-09-10T17:38:32.376Z,25.61
2022-09-10T17:41:04.684Z,25.60
2022-09-10T17:43:36.813Z,25.57
2022-09-10T17:46:10.722Z,25.42
2022-09-10T17:48:41.396Z,25.50
2022-09-10T17:51:14.052Z,25.47
2022-09-10T17:53:46.590Z,25.50
2022-09-10T17:56:19.167Z,25.46
2022-09-10T17:58:49.859Z,25.44
2022-09-10T18:01:25.745Z,25.29
2022-09-10T18:03:56.683Z,25.40
2022-09-10T18:06:29.425Z,25.36
2022-09-10T18:09:02.052Z,25.32
2022-09-10T18:11:36.017Z,25.22
2022-09-10T18:14:07.416Z,25.31
2022-09-10T18:16:38.967Z,25.29
2022-09-10T18:19:14.266Z,25.25
2022-09-10T18:21:46.812Z,25.26
2022-09-10T18:24:19.264Z,25.23
2022-09-10T18:26:50.552Z,25.24
2022-09-10T18:29:22.362Z,25.20
2022-09-10T18:31:57.804Z,25.15
2022-09-10T18:34:46.889Z,25.16
2022-09-10T18:37:17.104Z,25.10
2022-09-10T18:39:48.156Z,25.06
2022-09-10T18:42:18.267Z,25.01
2022-09-10T18:44:49.342Z,25.01
2022-09-10T18:47:40.930Z,25.01
2022-09-10T18:50:15.276Z,25.03
2022-09-10T18:52:45.695Z,25.01
2022-09-10T18:55:16.280Z,24.97
2022-09-10T18:57:46.354Z,24.97
2022-09-10T19:00:17.480Z,24.92
2022-09-10T19:02:49.790Z,24.89
2022-09-10T19:05:20.027Z,24.81
2022-09-10T19:07:50.258Z,24.82
2022-09-10T19:10:23.041Z,24.77
2022-09-10T19:12:55.739Z,24.78
2022-09-10T19:15:28.084Z,24.75
2022-09-10T19:18:01.357Z,24.72
2022-09-10T19:20:37.753Z,24.76
2022-09-10T19:23:09.747Z,24.74
2022-09-10T19:25:40.898Z,24.76
2022-09-10T19:28:11.236Z,24.75
2022-09-10T19:30:41.063Z,24.74
2022-09-10T19:33:12.635Z,24.70
2022-09-10T19:35:42.613Z,24.69
2022-09-10T19:38:34.268Z,24.69
2022-09-10T19:41:05.632Z,24.70
2022-09-10T19:43:37.147Z,24.58
2022-09-10T19:46:10.181Z,24.68
2022-09-10T19:48:42.327Z,24.67
2022-09-10T19:51:14.467Z,24.65
2022-09-10T19:53:44.702Z,24.65
2022-09-10T19:56:20.267Z,24.25
2022-09-10T19:58:52.167Z,24.66
2022-09-10T20:01:24.052Z,24.63
2022-09-10T20:03:56.250Z,24.59
2022-09-10T20:06:26.430Z,24.60
2022-09-10T20:08:57.534Z,24.48
2022-09-10T20:11:29.962Z,24.57
2022-09-10T20:14:03.445Z,24.55
2022-09-10T20:16:33.837Z,24.55
2022-09-10T20:19:06.244Z,24.48
2022-09-10T20:21:37.551Z,24.48
2022-09-10T20:24:08.287Z,24.49
2022-09-10T20:26:41.129Z,24.48
2022-09-10T20:29:13.281Z,24.43
2022-09-10T20:31:44.145Z,24.44
2022-09-10T20:34:17.297Z,24.44
2022-09-10T20:36:47.898Z,24.43
2022-09-10T20:39:20.232Z,24.42
2022-09-10T20:41:50.461Z,24.43
2022-09-10T20:44:20.904Z,24.38
2022-09-10T20:46:51.948Z,24.34
2022-09-10T20:49:23.152Z,24.35
2022-09-10T20:51:53.602Z,24.32
2022-09-10T20:54:23.711Z,24.19
2022-09-10T20:56:53.511Z,24.17
2022-09-10T20:59:27.776Z,24.21
2022-09-10T21:01:58.178Z,24.17
2022-09-10T21:04:29.461Z,24.07
2022-09-10T21:06:59.701Z,23.97
2022-09-10T21:09:29.463Z,23.99
2022-09-10T21:11:59.220Z,23.96
2022-09-10T21:14:28.973Z,24.00
2022-09-10T21:16:58.615Z,24.03
2022-09-10T21:19:29.819Z,23.97
2022-09-10T21:21:59.739Z,24.00
2022-09-10T21:24:29.540Z,24.03
2022-09-10T21:26:59.432Z,23.99
2022-09-10T21:29:29.160Z,23.97
2022-09-10T21:31:59.988Z,23.91
2022-09-10T21:34:32.472Z,23.97
2022-09-10T21:37:02.350Z,23.91
2022-09-10T21:39:32.060Z,23.93
2022-09-10T21:42:04.383Z,23.92
2022-09-10T21:44:34.241Z,23.87
2022-09-10T21:47:04.000Z,23.84
2022-09-10T21:49:35.363Z,23.79
2022-09-10T21:52:05.759Z,23.78
2022-09-10T21:54:36.621Z,23.79
2022-09-10T21:57:10.916Z,23.74
2022-09-10T21:59:41.645Z,23.74
2022-09-10T22:02:11.468Z,23.66
2022-09-10T22:04:43.070Z,23.62
2022-09-10T22:07:14.201Z,23.63
2022-09-10T22:09:43.994Z,23.51
2022-09-10T22:12:13.883Z,23.52
2022-09-10T22:14:43.840Z,23.50
2022-09-10T22:17:13.632Z,23.52
2022-09-10T22:19:44.804Z,23.52
2022-09-10T22:22:14.524Z,23.55
2022-09-10T22:24:44.661Z,23.55
2022-09-10T22:27:14.377Z,23.57
2022-09-10T22:29:45.297Z,23.60
2022-09-10T22:32:15.798Z,23.57
2022-09-10T22:34:48.052Z,23.55
2022-09-10T22:37:18.004Z,23.52
2022-09-10T22:39:47.803Z,23.51
2022-09-10T22:42:21.180Z,23.51
2022-09-10T22:44:51.160Z,23.51
2022-09-10T22:47:20.959Z,23.50
2022-09-10T22:49:52.112Z,23.51
2022-09-10T22:52:21.826Z,23.46
2022-09-10T22:54:52.479Z,23.43
2022-09-10T22:57:22.292Z,23.44
2022-09-10T22:59:52.292Z,23.39
2022-09-10T23:02:22.394Z,23.35
2022-09-10T23:04:53.723Z,23.31
2022-09-10T23:07:25.908Z,23.29
2022-09-10T23:09:55.833Z,23.33
2022-09-10T23:12:25.572Z,23.38
2022-09-10T23:14:55.369Z,23.34
2022-09-10T23:17:25.306Z,23.34
2022-09-10T23:19:56.454Z,23.38
2022-09-10T23:22:26.255Z,23.36
2022-09-10T23:24:56.593Z,23.28
2022-09-10T23:27:26.385Z,23.26
2022-09-10T23:29:56.618Z,23.26
2022-09-10T23:32:26.396Z,23.25
2022-09-10T23:34:57.527Z,23.21
2022-09-10T23:37:27.379Z,23.25
2022-09-10T23:39:57.125Z,23.19
2022-09-10T23:42:27.474Z,23.20
2022-09-10T23:44:57.266Z,23.19
2022-09-10T23:47:27.015Z,23.24
2022-09-10T23:49:58.244Z,23.19
2022-09-10T23:52:27.974Z,23.23
2022-09-10T23:54:57.772Z,23.24
2022-09-10T23:57:27.521Z,23.21
2022-09-10T23:59:57.284Z,23.20
